sensor_id;sensor_type;location;lat;lon;timestamp;temperature;humidity
15364;DHT22;7781;49.690;6.472;2023-10-19T00:00:14;13.60;99.90
15364;DHT22;7781;49.690;6.472;2023-10-19T00:02:50;13.60;99.90
15364;DHT22;7781;49.690;6.472;2023-10-19T00:05:20;13.70;99.90
15364;DHT22;7781;49.690;6.472;2023-10-19T00:07:53;13.90;99.90
15364;DHT22;7781;49.690;6.472;2023-10-19T00:10:26;14.10;99.90
15364;DHT22;7781;49.690;6.472;2023-10-19T00:13:02;14.30;99.90
15364;DHT22;7781;49.690;6.472;2023-10-19T00:15:32;14.30;99.90
15364;DHT22;7781;49.690;6.472;2023-10-19T00:18:02;14.20;99.90
15364;DHT22;7781;49.690;6.472;2023-10-19T00:20:37;14.10;99.90
15364;DHT22;7781;49.690;6.472;2023-10-19T00:23:19;14.10;99.90
15364;DHT22;7781;49.690;6.472;2023-10-19T00:25:58;14.00;99.90
15364;DHT22;7781;49.690;6.472;2023-10-19T00:28:33;14.00;99.90
15364;DHT22;7781;49.690;6.472;2023-10-19T00:31:03;14.10;99.90
15364;DHT22;7781;49.690;6.472;2023-10-19T00:33:35;14.10;99.90
15364;DHT22;7781;49.690;6.472;2023-10-19T00:36:07;14.20;99.90
15364;DHT22;7781;49.690;6.472;2023-10-19T00:38:42;14.30;99.90
15364;DHT22;7781;49.690;6.472;2023-10-19T00:41:21;14.30;99.90
15364;DHT22;7781;49.690;6.472;2023-10-19T00:43:51;14.30;99.90
15364;DHT22;7781;49.690;6.472;2023-10-19T00:46:25;14.20;99.90
15364;DHT22;7781;49.690;6.472;2023-10-19T00:49:03;14.20;99.90
15364;DHT22;7781;49.690;6.472;2023-10-19T00:51:37;14.20;99.90
15364;DHT22;7781;49.690;6.472;2023-10-19T00:54:21;14.20;99.90
15364;DHT22;7781;49.690;6.472;2023-10-19T00:56:56;14.20;99.90
15364;DHT22;7781;49.690;6.472;2023-10-19T00:59:30;14.30;99.90
15364;DHT22;7781;49.690;6.472;2023-10-19T01:02:02;14.30;99.90
15364;DHT22;7781;49.690;6.472;2023-10-19T01:04:47;14.30;99.90
15364;DHT22;7781;49.690;6.472;2023-10-19T01:07:24;14.30;99.90
15364;DHT22;7781;49.690;6.472;2023-10-19T01:09:59;14.40;99.90
15364;DHT22;7781;49.690;6.472;2023-10-19T01:12:32;14.50;99.90
15364;DHT22;7781;49.690;6.472;2023-10-19T01:15:08;14.50;99.90
15364;DHT22;7781;49.690;6.472;2023-10-19T01:17:45;14.50;99.90
15364;DHT22;7781;49.690;6.472;2023-10-19T01:20:15;14.60;99.90
15364;DHT22;7781;49.690;6.472;2023-10-19T01:23:04;14.60;99.90
15364;DHT22;7781;49.690;6.472;2023-10-19T01:25:51;14.60;99.90
15364;DHT22;7781;49.690;6.472;2023-10-19T01:28:28;14.50;99.90
15364;DHT22;7781;49.690;6.472;2023-10-19T01:31:11;14.50;99.90
15364;DHT22;7781;49.690;6.472;2023-10-19T01:33:44;14.50;99.90
15364;DHT22;7781;49.690;6.472;2023-10-19T01:36:13;14.50;99.90
15364;DHT22;7781;49.690;6.472;2023-10-19T01:38:55;14.50;99.90
15364;DHT22;7781;49.690;6.472;2023-10-19T01:41:28;14.40;99.90
15364;DHT22;7781;49.690;6.472;2023-10-19T01:43:59;14.40;99.90
15364;DHT22;7781;49.690;6.472;2023-10-19T01:46:34;14.40;99.90
15364;DHT22;7781;49.690;6.472;2023-10-19T01:49:06;14.40;99.90
15364;DHT22;7781;49.690;6.472;2023-10-19T01:51:35;14.40;99.90
15364;DHT22;7781;49.690;6.472;2023-10-19T01:54:07;14.40;99.90
15364;DHT22;7781;49.690;6.472;2023-10-19T01:56:35;14.40;99.90
15364;DHT22;7781;49.690;6.472;2023-10-19T01:59:07;14.40;99.90
15364;DHT22;7781;49.690;6.472;2023-10-19T02:01:36;14.40;99.90
15364;DHT22;7781;49.690;6.472;2023-10-19T02:04:09;14.30;99.90
15364;DHT22;7781;49.690;6.472;2023-10-19T02:06:41;14.20;99.90
15364;DHT22;7781;49.690;6.472;2023-10-19T02:09:20;14.20;99.90
15364;DHT22;7781;49.690;6.472;2023-10-19T02:11:55;14.20;99.90
15364;DHT22;7781;49.690;6.472;2023-10-19T02:14:27;14.20;99.90
15364;DHT22;7781;49.690;6.472;2023-10-19T02:17:01;14.20;99.90
15364;DHT22;7781;49.690;6.472;2023-10-19T02:19:31;14.20;99.90
15364;DHT22;7781;49.690;6.472;2023-10-19T02:22:03;14.20;99.90
15364;DHT22;7781;49.690;6.472;2023-10-19T02:24:35;14.20;99.90
15364;DHT22;7781;49.690;6.472;2023-10-19T02:27:04;14.30;99.90
15364;DHT22;7781;49.690;6.472;2023-10-19T02:29:34;14.30;99.90
15364;DHT22;7781;49.690;6.472;2023-10-19T02:32:05;14.30;99.90
15364;DHT22;7781;49.690;6.472;2023-10-19T02:34:33;14.30;99.90
15364;DHT22;7781;49.690;6.472;2023-10-19T02:37:05;14.30;99.90
15364;DHT22;7781;49.690;6.472;2023-10-19T02:39:36;14.30;99.90
15364;DHT22;7781;49.690;6.472;2023-10-19T02:42:04;14.30;99.90
15364;DHT22;7781;49.690;6.472;2023-10-19T02:44:33;14.40;99.90
15364;DHT22;7781;49.690;6.472;2023-10-19T02:47:06;14.40;99.90
15364;DHT22;7781;49.690;6.472;2023-10-19T02:49:37;14.40;99.90
15364;DHT22;7781;49.690;6.472;2023-10-19T02:52:07;14.40;99.90
15364;DHT22;7781;49.690;6.472;2023-10-19T02:54:36;14.30;99.90
15364;DHT22;7781;49.690;6.472;2023-10-19T02:57:05;14.20;99.90
15364;DHT22;7781;49.690;6.472;2023-10-19T02:59:35;14.20;99.90
15364;DHT22;7781;49.690;6.472;2023-10-19T03:02:06;14.20;99.90
15364;DHT22;7781;49.690;6.472;2023-10-19T03:04:43;14.20;99.90
15364;DHT22;7781;49.690;6.472;2023-10-19T03:07:12;14.20;99.90
15364;DHT22;7781;49.690;6.472;2023-10-19T03:09:42;14.20;99.90
15364;DHT22;7781;49.690;6.472;2023-10-19T03:12:18;14.20;99.90
15364;DHT22;7781;49.690;6.472;2023-10-19T03:14:46;14.20;99.90
15364;DHT22;7781;49.690;6.472;2023-10-19T03:17:15;14.30;99.90
15364;DHT22;7781;49.690;6.472;2023-10-19T03:19:44;14.40;99.90
15364;DHT22;7781;49.690;6.472;2023-10-19T03:22:13;14.40;99.90
15364;DHT22;7781;49.690;6.472;2023-10-19T03:24:44;14.40;99.90
15364;DHT22;7781;49.690;6.472;2023-10-19T03:27:15;14.50;99.90
15364;DHT22;7781;49.690;6.472;2023-10-19T03:29:46;14.60;99.90
15364;DHT22;7781;49.690;6.472;2023-10-19T03:32:16;14.60;99.90
15364;DHT22;7781;49.690;6.472;2023-10-19T03:34:46;14.70;99.90
15364;DHT22;7781;49.690;6.472;2023-10-19T03:37:17;14.70;99.90
15364;DHT22;7781;49.690;6.472;2023-10-19T03:39:50;14.80;99.90
15364;DHT22;7781;49.690;6.472;2023-10-19T03:42:19;14.80;99.90
15364;DHT22;7781;49.690;6.472;2023-10-19T03:44:48;14.80;99.90
15364;DHT22;7781;49.690;6.472;2023-10-19T03:47:21;14.80;99.90
15364;DHT22;7781;49.690;6.472;2023-10-19T03:49:53;14.80;99.90
15364;DHT22;7781;49.690;6.472;2023-10-19T03:52:28;14.80;99.90
15364;DHT22;7781;49.690;6.472;2023-10-19T03:55:04;14.80;99.90
15364;DHT22;7781;49.690;6.472;2023-10-19T03:57:39;14.80;99.90
15364;DHT22;7781;49.690;6.472;2023-10-19T04:00:11;14.80;99.90
15364;DHT22;7781;49.690;6.472;2023-10-19T04:02:45;14.90;99.90
15364;DHT22;7781;49.690;6.472;2023-10-19T04:05:14;14.90;99.90
15364;DHT22;7781;49.690;6.472;2023-10-19T04:07:49;14.90;99.90
15364;DHT22;7781;49.690;6.472;2023-10-19T04:10:24;14.90;99.90
15364;DHT22;7781;49.690;6.472;2023-10-19T04:13:06;14.90;99.90
15364;DHT22;7781;49.690;6.472;2023-10-19T04:15:40;15.00;99.90
15364;DHT22;7781;49.690;6.472;2023-10-19T04:18:10;15.00;99.90
15364;DHT22;7781;49.690;6.472;2023-10-19T04:20:39;15.00;99.90
15364;DHT22;7781;49.690;6.472;2023-10-19T04:23:23;15.00;99.90
15364;DHT22;7781;49.690;6.472;2023-10-19T04:25:57;14.90;99.90
15364;DHT22;7781;49.690;6.472;2023-10-19T04:28:26;15.00;99.90
15364;DHT22;7781;49.690;6.472;2023-10-19T04:31:06;15.00;99.90
15364;DHT22;7781;49.690;6.472;2023-10-19T04:33:41;14.90;99.90
15364;DHT22;7781;49.690;6.472;2023-10-19T04:36:14;14.90;99.90
15364;DHT22;7781;49.690;6.472;2023-10-19T04:38:43;14.90;99.90
15364;DHT22;7781;49.690;6.472;2023-10-19T04:41:14;14.90;99.90
15364;DHT22;7781;49.690;6.472;2023-10-19T04:43:42;14.90;99.90
15364;DHT22;7781;49.690;6.472;2023-10-19T04:46:17;14.80;99.90
15364;DHT22;7781;49.690;6.472;2023-10-19T04:48:47;14.80;99.90
15364;DHT22;7781;49.690;6.472;2023-10-19T04:51:17;14.80;99.90
15364;DHT22;7781;49.690;6.472;2023-10-19T04:53:46;14.80;99.90
15364;DHT22;7781;49.690;6.472;2023-10-19T04:56:19;14.80;99.90
15364;DHT22;7781;49.690;6.472;2023-10-19T04:58:47;14.80;99.90
15364;DHT22;7781;49.690;6.472;2023-10-19T05:01:16;14.80;99.90
15364;DHT22;7781;49.690;6.472;2023-10-19T05:03:45;14.80;99.90
15364;DHT22;7781;49.690;6.472;2023-10-19T05:06:14;14.80;99.90
15364;DHT22;7781;49.690;6.472;2023-10-19T05:08:42;14.80;99.90
15364;DHT22;7781;49.690;6.472;2023-10-19T05:11:11;14.80;99.90
15364;DHT22;7781;49.690;6.472;2023-10-19T05:13:41;14.80;99.90
15364;DHT22;7781;49.690;6.472;2023-10-19T05:16:14;14.80;99.90
15364;DHT22;7781;49.690;6.472;2023-10-19T05:18:42;14.80;99.90
15364;DHT22;7781;49.690;6.472;2023-10-19T05:21:11;14.70;99.90
15364;DHT22;7781;49.690;6.472;2023-10-19T05:23:41;14.70;99.90
15364;DHT22;7781;49.690;6.472;2023-10-19T05:26:09;14.70;99.90
15364;DHT22;7781;49.690;6.472;2023-10-19T05:28:41;14.70;99.90
15364;DHT22;7781;49.690;6.472;2023-10-19T05:31:10;14.70;99.90
15364;DHT22;7781;49.690;6.472;2023-10-19T05:33:41;14.60;99.90
15364;DHT22;7781;49.690;6.472;2023-10-19T05:36:09;14.60;99.90
15364;DHT22;7781;49.690;6.472;2023-10-19T05:38:38;14.60;99.90
15364;DHT22;7781;49.690;6.472;2023-10-19T05:41:07;14.60;99.90
15364;DHT22;7781;49.690;6.472;2023-10-19T05:43:38;14.60;99.90
15364;DHT22;7781;49.690;6.472;2023-10-19T05:46:08;14.60;99.90
15364;DHT22;7781;49.690;6.472;2023-10-19T05:48:41;14.50;99.90
15364;DHT22;7781;49.690;6.472;2023-10-19T05:51:10;14.50;99.90
15364;DHT22;7781;49.690;6.472;2023-10-19T05:53:39;14.50;99.90
15364;DHT22;7781;49.690;6.472;2023-10-19T05:56:08;14.50;99.90
15364;DHT22;7781;49.690;6.472;2023-10-19T05:58:37;14.50;99.90
15364;DHT22;7781;49.690;6.472;2023-10-19T06:01:08;14.50;99.90
15364;DHT22;7781;49.690;6.472;2023-10-19T06:03:37;14.50;99.90
15364;DHT22;7781;49.690;6.472;2023-10-19T06:06:07;14.50;99.90
15364;DHT22;7781;49.690;6.472;2023-10-19T06:08:35;14.50;99.90
15364;DHT22;7781;49.690;6.472;2023-10-19T06:11:04;14.50;99.90
15364;DHT22;7781;49.690;6.472;2023-10-19T06:13:34;14.50;99.90
15364;DHT22;7781;49.690;6.472;2023-10-19T06:16:04;14.50;99.90
15364;DHT22;7781;49.690;6.472;2023-10-19T06:18:35;14.40;99.90
15364;DHT22;7781;49.690;6.472;2023-10-19T06:21:05;14.40;99.90
15364;DHT22;7781;49.690;6.472;2023-10-19T06:23:35;14.30;99.90
15364;DHT22;7781;49.690;6.472;2023-10-19T06:26:09;14.30;99.90
15364;DHT22;7781;49.690;6.472;2023-10-19T06:28:40;14.20;99.90
15364;DHT22;7781;49.690;6.472;2023-10-19T06:31:13;14.20;99.90
15364;DHT22;7781;49.690;6.472;2023-10-19T06:33:44;14.20;99.90
15364;DHT22;7781;49.690;6.472;2023-10-19T06:36:13;14.20;99.90
15364;DHT22;7781;49.690;6.472;2023-10-19T06:38:42;14.20;99.90
15364;DHT22;7781;49.690;6.472;2023-10-19T06:41:14;14.20;99.90
15364;DHT22;7781;49.690;6.472;2023-10-19T06:43:44;14.20;99.90
15364;DHT22;7781;49.690;6.472;2023-10-19T06:46:14;14.20;99.90
15364;DHT22;7781;49.690;6.472;2023-10-19T06:48:45;14.20;99.90
15364;DHT22;7781;49.690;6.472;2023-10-19T06:51:14;14.20;99.90
15364;DHT22;7781;49.690;6.472;2023-10-19T06:53:43;14.10;99.90
15364;DHT22;7781;49.690;6.472;2023-10-19T06:56:13;14.10;99.90
15364;DHT22;7781;49.690;6.472;2023-10-19T06:58:43;14.10;99.90
15364;DHT22;7781;49.690;6.472;2023-10-19T07:01:12;14.10;99.90
15364;DHT22;7781;49.690;6.472;2023-10-19T07:03:45;14.00;99.90
15364;DHT22;7781;49.690;6.472;2023-10-19T07:06:14;14.00;99.90
15364;DHT22;7781;49.690;6.472;2023-10-19T07:08:46;14.00;99.90
15364;DHT22;7781;49.690;6.472;2023-10-19T07:11:15;14.10;99.90
15364;DHT22;7781;49.690;6.472;2023-10-19T07:13:45;14.10;99.90
15364;DHT22;7781;49.690;6.472;2023-10-19T07:16:15;14.10;99.90
15364;DHT22;7781;49.690;6.472;2023-10-19T07:18:49;14.20;99.90
15364;DHT22;7781;49.690;6.472;2023-10-19T07:21:18;14.20;99.90
15364;DHT22;7781;49.690;6.472;2023-10-19T07:23:49;14.20;99.90
15364;DHT22;7781;49.690;6.472;2023-10-19T07:26:19;14.20;99.90
15364;DHT22;7781;49.690;6.472;2023-10-19T07:28:58;14.30;99.90
15364;DHT22;7781;49.690;6.472;2023-10-19T07:31:27;14.30;99.90
15364;DHT22;7781;49.690;6.472;2023-10-19T07:33:57;14.40;99.90
15364;DHT22;7781;49.690;6.472;2023-10-19T07:36:26;14.40;99.90
15364;DHT22;7781;49.690;6.472;2023-10-19T07:38:56;14.40;99.90
15364;DHT22;7781;49.690;6.472;2023-10-19T07:41:25;14.50;99.90
15364;DHT22;7781;49.690;6.472;2023-10-19T07:43:55;14.50;99.90
15364;DHT22;7781;49.690;6.472;2023-10-19T07:46:25;14.60;99.90
15364;DHT22;7781;49.690;6.472;2023-10-19T07:48:53;14.60;99.90
15364;DHT22;7781;49.690;6.472;2023-10-19T07:51:25;14.70;99.90
15364;DHT22;7781;49.690;6.472;2023-10-19T07:53:54;14.80;99.90
15364;DHT22;7781;49.690;6.472;2023-10-19T07:56:25;14.80;99.90
15364;DHT22;7781;49.690;6.472;2023-10-19T07:58:54;14.90;99.90
15364;DHT22;7781;49.690;6.472;2023-10-19T08:01:24;15.00;99.90
15364;DHT22;7781;49.690;6.472;2023-10-19T08:03:52;15.00;99.90
15364;DHT22;7781;49.690;6.472;2023-10-19T08:06:22;15.10;99.90
15364;DHT22;7781;49.690;6.472;2023-10-19T08:08:54;15.10;99.90
15364;DHT22;7781;49.690;6.472;2023-10-19T08:11:23;15.10;99.90
15364;DHT22;7781;49.690;6.472;2023-10-19T08:13:52;15.20;99.90
15364;DHT22;7781;49.690;6.472;2023-10-19T08:16:22;15.20;99.90
15364;DHT22;7781;49.690;6.472;2023-10-19T08:18:56;15.30;99.90
15364;DHT22;7781;49.690;6.472;2023-10-19T08:21:24;15.30;99.90
15364;DHT22;7781;49.690;6.472;2023-10-19T08:23:57;15.40;99.90
15364;DHT22;7781;49.690;6.472;2023-10-19T08:26:30;15.50;99.90
15364;DHT22;7781;49.690;6.472;2023-10-19T08:28:59;15.50;99.90
15364;DHT22;7781;49.690;6.472;2023-10-19T08:31:28;15.50;99.90
15364;DHT22;7781;49.690;6.472;2023-10-19T08:33:57;15.60;99.90
15364;DHT22;7781;49.690;6.472;2023-10-19T08:36:25;15.60;99.90
15364;DHT22;7781;49.690;6.472;2023-10-19T08:38:58;15.60;99.90
15364;DHT22;7781;49.690;6.472;2023-10-19T08:41:33;15.70;99.90
15364;DHT22;7781;49.690;6.472;2023-10-19T08:44:05;15.70;99.90
15364;DHT22;7781;49.690;6.472;2023-10-19T08:46:41;15.70;99.90
15364;DHT22;7781;49.690;6.472;2023-10-19T08:49:13;15.80;99.90
15364;DHT22;7781;49.690;6.472;2023-10-19T08:51:44;15.80;99.90
15364;DHT22;7781;49.690;6.472;2023-10-19T08:54:15;15.90;99.90
15364;DHT22;7781;49.690;6.472;2023-10-19T08:56:45;16.00;99.90
15364;DHT22;7781;49.690;6.472;2023-10-19T08:59:16;16.00;99.90
15364;DHT22;7781;49.690;6.472;2023-10-19T09:01:46;16.00;99.90
15364;DHT22;7781;49.690;6.472;2023-10-19T09:04:16;16.10;99.90
15364;DHT22;7781;49.690;6.472;2023-10-19T09:06:45;16.10;99.90
15364;DHT22;7781;49.690;6.472;2023-10-19T09:09:18;16.20;99.90
15364;DHT22;7781;49.690;6.472;2023-10-19T09:11:48;16.20;99.90
15364;DHT22;7781;49.690;6.472;2023-10-19T09:14:31;16.20;99.90
15364;DHT22;7781;49.690;6.472;2023-10-19T09:17:00;16.30;99.90
15364;DHT22;7781;49.690;6.472;2023-10-19T09:19:39;16.40;99.90
15364;DHT22;7781;49.690;6.472;2023-10-19T09:22:10;16.40;99.90
15364;DHT22;7781;49.690;6.472;2023-10-19T09:24:49;16.40;99.90
15364;DHT22;7781;49.690;6.472;2023-10-19T09:27:20;16.50;99.90
15364;DHT22;7781;49.690;6.472;2023-10-19T09:29:50;16.50;99.90
15364;DHT22;7781;49.690;6.472;2023-10-19T09:32:21;16.50;99.90
15364;DHT22;7781;49.690;6.472;2023-10-19T09:34:52;16.60;99.90
15364;DHT22;7781;49.690;6.472;2023-10-19T09:37:23;16.80;99.90
15364;DHT22;7781;49.690;6.472;2023-10-19T09:39:55;16.90;99.90
15364;DHT22;7781;49.690;6.472;2023-10-19T09:42:26;17.10;99.90
15364;DHT22;7781;49.690;6.472;2023-10-19T09:44:59;17.10;99.90
15364;DHT22;7781;49.690;6.472;2023-10-19T09:47:35;17.20;99.90
15364;DHT22;7781;49.690;6.472;2023-10-19T09:50:06;17.30;99.90
15364;DHT22;7781;49.690;6.472;2023-10-19T09:52:36;17.30;99.90
15364;DHT22;7781;49.690;6.472;2023-10-19T09:55:12;17.40;99.90
15364;DHT22;7781;49.690;6.472;2023-10-19T09:57:46;17.40;99.90
15364;DHT22;7781;49.690;6.472;2023-10-19T10:00:17;17.40;99.90
15364;DHT22;7781;49.690;6.472;2023-10-19T10:02:52;17.40;99.90
15364;DHT22;7781;49.690;6.472;2023-10-19T10:05:44;17.30;99.90
15364;DHT22;7781;49.690;6.472;2023-10-19T10:08:30;17.30;99.90
15364;DHT22;7781;49.690;6.472;2023-10-19T10:11:20;17.20;99.90
15364;DHT22;7781;49.690;6.472;2023-10-19T10:13:49;17.20;99.90
15364;DHT22;7781;49.690;6.472;2023-10-19T10:16:25;17.10;99.90
15364;DHT22;7781;49.690;6.472;2023-10-19T10:18:56;17.00;99.90
15364;DHT22;7781;49.690;6.472;2023-10-19T10:21:28;17.00;99.90
15364;DHT22;7781;49.690;6.472;2023-10-19T10:24:00;16.90;99.90
15364;DHT22;7781;49.690;6.472;2023-10-19T10:26:31;16.80;99.90
15364;DHT22;7781;49.690;6.472;2023-10-19T10:29:21;16.80;99.90
15364;DHT22;7781;49.690;6.472;2023-10-19T10:31:51;16.80;99.90
15364;DHT22;7781;49.690;6.472;2023-10-19T10:34:42;16.80;99.90
15364;DHT22;7781;49.690;6.472;2023-10-19T10:37:12;16.70;99.90
15364;DHT22;7781;49.690;6.472;2023-10-19T10:39:41;16.70;99.90
15364;DHT22;7781;49.690;6.472;2023-10-19T10:42:14;16.70;99.90
15364;DHT22;7781;49.690;6.472;2023-10-19T10:44:46;16.70;99.90
15364;DHT22;7781;49.690;6.472;2023-10-19T10:47:30;16.70;99.90
15364;DHT22;7781;49.690;6.472;2023-10-19T10:50:01;16.70;99.90
15364;DHT22;7781;49.690;6.472;2023-10-19T10:52:32;16.70;99.90
15364;DHT22;7781;49.690;6.472;2023-10-19T10:55:07;16.70;99.90
15364;DHT22;7781;49.690;6.472;2023-10-19T10:57:41;16.70;99.90
15364;DHT22;7781;49.690;6.472;2023-10-19T11:00:12;16.70;99.90
15364;DHT22;7781;49.690;6.472;2023-10-19T11:02:44;16.80;99.90
15364;DHT22;7781;49.690;6.472;2023-10-19T11:05:16;16.80;99.90
15364;DHT22;7781;49.690;6.472;2023-10-19T11:08:05;16.80;99.90
15364;DHT22;7781;49.690;6.472;2023-10-19T11:10:35;16.80;99.90
15364;DHT22;7781;49.690;6.472;2023-10-19T11:13:07;16.80;99.90
15364;DHT22;7781;49.690;6.472;2023-10-19T11:15:37;16.90;99.90
15364;DHT22;7781;49.690;6.472;2023-10-19T11:18:07;16.90;99.90
15364;DHT22;7781;49.690;6.472;2023-10-19T11:20:36;17.00;99.90
15364;DHT22;7781;49.690;6.472;2023-10-19T11:23:05;16.90;99.90
15364;DHT22;7781;49.690;6.472;2023-10-19T11:25:35;16.90;99.90
15364;DHT22;7781;49.690;6.472;2023-10-19T11:28:16;17.00;99.90
15364;DHT22;7781;49.690;6.472;2023-10-19T11:30:46;17.00;99.90
15364;DHT22;7781;49.690;6.472;2023-10-19T11:33:16;16.90;99.90
15364;DHT22;7781;49.690;6.472;2023-10-19T11:35:49;16.90;99.90
15364;DHT22;7781;49.690;6.472;2023-10-19T11:38:17;17.00;99.90
15364;DHT22;7781;49.690;6.472;2023-10-19T11:40:46;17.00;99.90
15364;DHT22;7781;49.690;6.472;2023-10-19T11:43:18;17.00;99.90
15364;DHT22;7781;49.690;6.472;2023-10-19T11:45:47;17.10;99.90
15364;DHT22;7781;49.690;6.472;2023-10-19T11:48:16;17.00;99.90
15364;DHT22;7781;49.690;6.472;2023-10-19T11:50:45;17.10;99.90
15364;DHT22;7781;49.690;6.472;2023-10-19T11:53:14;17.10;99.90
15364;DHT22;7781;49.690;6.472;2023-10-19T11:55:45;17.10;99.90
15364;DHT22;7781;49.690;6.472;2023-10-19T11:58:17;17.00;99.90
15364;DHT22;7781;49.690;6.472;2023-10-19T12:00:46;17.00;99.90
15364;DHT22;7781;49.690;6.472;2023-10-19T12:03:15;16.90;99.90
15364;DHT22;7781;49.690;6.472;2023-10-19T12:05:45;16.90;99.90
15364;DHT22;7781;49.690;6.472;2023-10-19T12:08:14;16.90;99.90
15364;DHT22;7781;49.690;6.472;2023-10-19T12:10:44;16.80;99.90
15364;DHT22;7781;49.690;6.472;2023-10-19T12:13:13;16.70;99.90
15364;DHT22;7781;49.690;6.472;2023-10-19T12:15:44;16.60;99.90
15364;DHT22;7781;49.690;6.472;2023-10-19T12:18:19;16.50;99.90
15364;DHT22;7781;49.690;6.472;2023-10-19T12:20:49;16.50;99.90
15364;DHT22;7781;49.690;6.472;2023-10-19T12:23:17;16.50;99.90
15364;DHT22;7781;49.690;6.472;2023-10-19T12:25:47;16.40;99.90
15364;DHT22;7781;49.690;6.472;2023-10-19T12:28:24;16.40;99.90
15364;DHT22;7781;49.690;6.472;2023-10-19T12:30:54;16.40;99.90
15364;DHT22;7781;49.690;6.472;2023-10-19T12:33:27;16.40;99.90
15364;DHT22;7781;49.690;6.472;2023-10-19T12:35:56;16.50;99.90
15364;DHT22;7781;49.690;6.472;2023-10-19T12:38:27;16.50;99.90
15364;DHT22;7781;49.690;6.472;2023-10-19T12:40:55;16.50;99.90
15364;DHT22;7781;49.690;6.472;2023-10-19T12:43:26;16.60;99.90
15364;DHT22;7781;49.690;6.472;2023-10-19T12:45:59;16.60;99.90
15364;DHT22;7781;49.690;6.472;2023-10-19T12:48:30;16.60;99.90
15364;DHT22;7781;49.690;6.472;2023-10-19T12:51:01;16.60;99.90
15364;DHT22;7781;49.690;6.472;2023-10-19T12:53:30;16.50;99.90
15364;DHT22;7781;49.690;6.472;2023-10-19T12:56:00;16.50;99.90
15364;DHT22;7781;49.690;6.472;2023-10-19T12:58:30;16.50;99.90
15364;DHT22;7781;49.690;6.472;2023-10-19T13:01:01;16.60;99.90
15364;DHT22;7781;49.690;6.472;2023-10-19T13:03:32;16.60;99.90
15364;DHT22;7781;49.690;6.472;2023-10-19T13:06:06;16.60;99.90
15364;DHT22;7781;49.690;6.472;2023-10-19T13:08:34;16.70;99.90
15364;DHT22;7781;49.690;6.472;2023-10-19T13:11:05;16.70;99.90
15364;DHT22;7781;49.690;6.472;2023-10-19T13:13:44;16.70;99.90
15364;DHT22;7781;49.690;6.472;2023-10-19T13:16:17;16.80;99.90
15364;DHT22;7781;49.690;6.472;2023-10-19T13:18:46;16.80;99.90
15364;DHT22;7781;49.690;6.472;2023-10-19T13:21:17;16.90;99.90
15364;DHT22;7781;49.690;6.472;2023-10-19T13:23:49;16.90;99.90
15364;DHT22;7781;49.690;6.472;2023-10-19T13:26:19;16.90;99.90
15364;DHT22;7781;49.690;6.472;2023-10-19T13:28:50;17.00;99.90
15364;DHT22;7781;49.690;6.472;2023-10-19T13:31:24;17.00;99.90
15364;DHT22;7781;49.690;6.472;2023-10-19T13:33:53;17.00;99.90
15364;DHT22;7781;49.690;6.472;2023-10-19T13:36:23;17.10;99.90
15364;DHT22;7781;49.690;6.472;2023-10-19T13:38:53;17.10;99.90
15364;DHT22;7781;49.690;6.472;2023-10-19T13:41:22;17.30;99.90
15364;DHT22;7781;49.690;6.472;2023-10-19T13:43:51;17.60;99.90
15364;DHT22;7781;49.690;6.472;2023-10-19T13:46:40;17.80;99.90
15364;DHT22;7781;49.690;6.472;2023-10-19T13:49:10;17.90;99.90
15364;DHT22;7781;49.690;6.472;2023-10-19T13:51:40;18.00;99.90
15364;DHT22;7781;49.690;6.472;2023-10-19T13:54:09;17.90;99.90
15364;DHT22;7781;49.690;6.472;2023-10-19T13:56:38;17.80;99.90
15364;DHT22;7781;49.690;6.472;2023-10-19T13:59:09;17.70;99.90
15364;DHT22;7781;49.690;6.472;2023-10-19T14:01:44;17.70;99.90
15364;DHT22;7781;49.690;6.472;2023-10-19T14:04:14;17.70;99.90
15364;DHT22;7781;49.690;6.472;2023-10-19T14:06:44;17.80;99.90
15364;DHT22;7781;49.690;6.472;2023-10-19T14:09:17;17.80;99.90
15364;DHT22;7781;49.690;6.472;2023-10-19T14:11:46;17.70;99.90
15364;DHT22;7781;49.690;6.472;2023-10-19T14:14:16;17.80;99.90
15364;DHT22;7781;49.690;6.472;2023-10-19T14:16:47;17.70;99.90
15364;DHT22;7781;49.690;6.472;2023-10-19T14:19:17;17.60;99.90
15364;DHT22;7781;49.690;6.472;2023-10-19T14:21:46;17.50;99.90
15364;DHT22;7781;49.690;6.472;2023-10-19T14:24:15;17.50;99.90
15364;DHT22;7781;49.690;6.472;2023-10-19T14:26:46;17.50;99.90
15364;DHT22;7781;49.690;6.472;2023-10-19T14:29:15;17.50;99.90
15364;DHT22;7781;49.690;6.472;2023-10-19T14:31:46;17.50;99.90
15364;DHT22;7781;49.690;6.472;2023-10-19T14:34:15;17.50;99.90
15364;DHT22;7781;49.690;6.472;2023-10-19T14:36:45;17.60;99.90
15364;DHT22;7781;49.690;6.472;2023-10-19T14:39:14;17.60;99.90
15364;DHT22;7781;49.690;6.472;2023-10-19T14:41:47;17.70;99.90
15364;DHT22;7781;49.690;6.472;2023-10-19T14:44:17;17.70;99.90
15364;DHT22;7781;49.690;6.472;2023-10-19T14:46:50;17.80;99.90
15364;DHT22;7781;49.690;6.472;2023-10-19T14:49:19;17.80;99.90
15364;DHT22;7781;49.690;6.472;2023-10-19T14:51:49;17.90;99.90
15364;DHT22;7781;49.690;6.472;2023-10-19T14:54:19;17.90;99.90
15364;DHT22;7781;49.690;6.472;2023-10-19T14:56:51;17.80;99.90
15364;DHT22;7781;49.690;6.472;2023-10-19T14:59:21;17.80;99.90
15364;DHT22;7781;49.690;6.472;2023-10-19T15:01:52;17.70;99.90
15364;DHT22;7781;49.690;6.472;2023-10-19T15:04:22;17.60;99.90
15364;DHT22;7781;49.690;6.472;2023-10-19T15:06:55;17.60;99.90
15364;DHT22;7781;49.690;6.472;2023-10-19T15:09:24;17.60;99.90
15364;DHT22;7781;49.690;6.472;2023-10-19T15:11:54;17.50;99.90
15364;DHT22;7781;49.690;6.472;2023-10-19T15:14:26;17.40;99.90
15364;DHT22;7781;49.690;6.472;2023-10-19T15:16:56;17.30;99.90
15364;DHT22;7781;49.690;6.472;2023-10-19T15:19:24;17.20;99.90
15364;DHT22;7781;49.690;6.472;2023-10-19T15:21:53;17.10;99.90
15364;DHT22;7781;49.690;6.472;2023-10-19T15:24:21;17.00;99.90
15364;DHT22;7781;49.690;6.472;2023-10-19T15:26:50;17.00;99.90
15364;DHT22;7781;49.690;6.472;2023-10-19T15:29:19;17.00;99.90
15364;DHT22;7781;49.690;6.472;2023-10-19T15:31:48;16.90;99.90
15364;DHT22;7781;49.690;6.472;2023-10-19T15:34:19;16.90;99.90
15364;DHT22;7781;49.690;6.472;2023-10-19T15:36:48;16.90;99.90
15364;DHT22;7781;49.690;6.472;2023-10-19T15:39:19;16.90;99.90
15364;DHT22;7781;49.690;6.472;2023-10-19T15:41:50;16.80;99.90
15364;DHT22;7781;49.690;6.472;2023-10-19T15:44:19;16.90;99.90
15364;DHT22;7781;49.690;6.472;2023-10-19T15:46:47;16.80;99.90
15364;DHT22;7781;49.690;6.472;2023-10-19T15:49:19;16.80;99.90
15364;DHT22;7781;49.690;6.472;2023-10-19T15:51:48;16.70;99.90
15364;DHT22;7781;49.690;6.472;2023-10-19T15:54:17;16.70;99.90
15364;DHT22;7781;49.690;6.472;2023-10-19T15:56:47;16.70;99.90
15364;DHT22;7781;49.690;6.472;2023-10-19T15:59:19;16.70;99.90
15364;DHT22;7781;49.690;6.472;2023-10-19T16:01:52;16.60;99.90
15364;DHT22;7781;49.690;6.472;2023-10-19T16:04:23;16.60;99.90
15364;DHT22;7781;49.690;6.472;2023-10-19T16:06:52;16.60;99.90
15364;DHT22;7781;49.690;6.472;2023-10-19T16:09:21;16.40;99.90
15364;DHT22;7781;49.690;6.472;2023-10-19T16:11:49;16.40;99.90